Hauptseite
METAR-TAF:

METAR-TAF

Flughäfen :

Fliegerhorst Neuburg

Neuburg, Deutschland

Breite: 48-43N, Länge: 011-13E, Höhe: 380 m

Beobachtung

Neuester Wetterbericht von vor 24 Minuten, um 05:20 UTC
Windstille
Temperatur 16°C
Luftfeuchtigkeit 88%
Luftdruck 1015 hPa
Sichtweite 10 km oder mehr
Leicht bewölkt in der Höhe von 4000 ft
Aufgelockert bewölkt in der Höhe von 5000 ft

METAR: ETSN 140520Z 00000KT 9999 FEW040 SCT050 16/14 Q1015 BLU+

Zeit: 07:44 (05:44 UTC)

Prognose

Neuester Wetterbericht von vor 1 Stunde und 39 Minuten, um 04:05 UTC
Gültige Prognose vom 14 um 05 UTC bis 14 um 14 UTC
Wind 5 kt aus Südwest
Sichtweite 10 km oder mehr
Aufgelockert bewölkt in der Höhe von 3000 ft
Aufgelockert bewölkt in der Höhe von 10000 ft

TAF: ETSN 140405Z 1405/1414 23005KT 9999 NSW SCT030 SCT100

Wetterbeobachtungen und Prognosen von mehr als 4000 Flughäfen (METAR und TAF Bericht).

Die verfügbaren Stationen werden durch gelbe und rote Markierungen auf der Karte dargestellt.

Führen Sie die Maus auf sie, um den Namen der Station zu sehen.

Darauf klicken, um die Beobachtung von Wetterbeobachtungen und Prognosen zu sehen.

Um die Karte zu ändern : klicken Sie auf den grünen Tasten mit einem schwarzen Kreuz Zum Vergrößern, auf den grünen Button mit einem Gedankenstrich zu verkleinern, oder auf die grünen Pfeile für benachbarte Karten.


METAR-TAF: